createdAt,value
2022-09-21T00:00:32.363Z,4.75
2022-09-21T00:02:59.558Z,3.90
2022-09-21T00:05:27.041Z,2.42
2022-09-21T00:07:54.220Z,2.70
2022-09-21T00:10:21.693Z,2.60
2022-09-21T00:12:49.139Z,2.65
2022-09-21T00:15:17.930Z,3.05
2022-09-21T00:17:45.594Z,1.85
2022-09-21T00:20:12.783Z,2.72
2022-09-21T00:22:39.915Z,1.80
2022-09-21T00:25:08.113Z,2.38
2022-09-21T00:27:35.405Z,2.50
2022-09-21T00:30:03.240Z,2.00
2022-09-21T00:32:31.372Z,2.38
2022-09-21T00:34:58.927Z,2.20
2022-09-21T00:37:26.006Z,1.90
2022-09-21T00:39:53.359Z,2.78
2022-09-21T00:42:21.823Z,1.83
2022-09-21T00:44:48.952Z,2.03
2022-09-21T00:47:17.614Z,2.13
2022-09-21T00:49:45.926Z,1.92
2022-09-21T00:52:14.934Z,2.20
2022-09-21T00:54:44.564Z,2.30
2022-09-21T00:57:12.096Z,2.00
2022-09-21T00:59:40.386Z,2.13
2022-09-21T01:02:08.264Z,2.22
2022-09-21T01:04:36.202Z,1.63
2022-09-21T01:07:05.675Z,1.95
2022-09-21T01:09:32.967Z,2.00
2022-09-21T01:12:07.746Z,2.90
2022-09-21T01:14:47.043Z,2.83
2022-09-21T01:17:19.010Z,5.75
2022-09-21T01:20:05.163Z,2.30
2022-09-21T01:22:49.326Z,1.80
2022-09-21T01:25:28.743Z,2.22
2022-09-21T01:28:06.546Z,3.15
2022-09-21T01:30:35.277Z,2.10
2022-09-21T01:33:02.304Z,2.47
2022-09-21T01:35:37.992Z,1.92
2022-09-21T01:38:07.826Z,1.90
2022-09-21T01:40:37.920Z,2.42
2022-09-21T01:43:06.405Z,2.35
2022-09-21T01:45:35.999Z,1.48
2022-09-21T01:48:03.541Z,2.00
2022-09-21T01:50:34.027Z,2.95
2022-09-21T01:53:08.533Z,2.65
2022-09-21T01:55:38.980Z,2.00
2022-09-21T01:58:11.218Z,2.13
2022-09-21T02:00:39.534Z,1.60
2022-09-21T02:03:09.461Z,1.85
2022-09-21T02:05:36.585Z,1.80
2022-09-21T02:08:05.958Z,1.98
2022-09-21T02:10:39.238Z,1.85
2022-09-21T02:13:07.378Z,2.95
2022-09-21T02:15:47.314Z,1.95
2022-09-21T02:18:20.778Z,2.20
2022-09-21T02:23:26.836Z,2.40
2022-09-21T02:26:02.869Z,4.90
2022-09-21T02:29:02.423Z,1.58
2022-09-21T02:31:29.495Z,2.00
2022-09-21T02:33:59.570Z,1.90
2022-09-21T02:36:35.686Z,3.10
2022-09-21T02:39:16.645Z,2.45
2022-09-21T02:41:57.703Z,2.40
2022-09-21T02:44:33.652Z,2.95
2022-09-21T02:47:24.066Z,6.18
2022-09-21T02:49:54.821Z,3.08
2022-09-21T02:52:22.612Z,4.80
2022-09-21T02:54:52.708Z,2.35
2022-09-21T02:57:21.289Z,5.40
2022-09-21T02:59:48.695Z,2.55
2022-09-21T03:02:15.965Z,2.88
2022-09-21T03:04:46.165Z,3.75
2022-09-21T03:07:13.431Z,3.38
2022-09-21T03:09:40.704Z,3.97
2022-09-21T03:12:08.040Z,3.53
2022-09-21T03:14:35.194Z,7.10
2022-09-21T03:17:02.276Z,12.48
2022-09-21T03:19:29.524Z,11.30
2022-09-21T03:21:56.950Z,4.28
2022-09-21T03:24:42.749Z,3.25
2022-09-21T03:27:09.884Z,6.53
2022-09-21T03:29:36.957Z,3.95
2022-09-21T03:32:04.288Z,3.30
2022-09-21T03:34:34.333Z,5.13
2022-09-21T03:37:02.146Z,3.42
2022-09-21T03:39:29.442Z,4.25
2022-09-21T03:41:57.118Z,3.55
2022-09-21T03:44:25.844Z,3.40
2022-09-21T03:46:54.393Z,4.47
2022-09-21T03:49:21.551Z,3.53
2022-09-21T03:51:49.067Z,4.07
2022-09-21T03:54:19.183Z,7.10
2022-09-21T03:56:46.243Z,3.70
2022-09-21T03:59:14.243Z,3.50
2022-09-21T04:01:41.765Z,3.42
2022-09-21T04:04:09.202Z,3.25
2022-09-21T04:06:36.627Z,2.83
2022-09-21T04:09:03.750Z,3.22
2022-09-21T04:11:32.529Z,2.92
2022-09-21T04:13:59.887Z,4.40
2022-09-21T04:16:27.445Z,3.00
2022-09-21T04:18:54.683Z,3.00
2022-09-21T04:21:22.411Z,3.25
2022-09-21T04:23:49.958Z,3.17
2022-09-21T04:26:21.922Z,2.30
2022-09-21T04:28:49.152Z,2.65
2022-09-21T04:31:16.434Z,2.75
2022-09-21T04:33:43.543Z,3.25
2022-09-21T04:36:10.701Z,5.40
2022-09-21T04:38:38.692Z,3.17
2022-09-21T04:41:05.870Z,2.60
2022-09-21T04:43:33.234Z,2.83
2022-09-21T04:46:05.405Z,2.42
2022-09-21T04:48:32.681Z,2.25
2022-09-21T04:50:59.844Z,2.42
2022-09-21T04:53:27.011Z,2.50
2022-09-21T04:55:55.566Z,2.67
2022-09-21T04:58:24.649Z,2.30
2022-09-21T05:00:52.561Z,2.67
2022-09-21T05:03:19.782Z,2.20
2022-09-21T05:05:54.817Z,2.60
2022-09-21T05:08:41.068Z,2.42
2022-09-21T05:11:08.703Z,2.30
2022-09-21T05:13:35.831Z,2.10
2022-09-21T05:16:03.099Z,2.08
2022-09-21T05:18:30.547Z,3.28
2022-09-21T05:20:58.381Z,2.00
2022-09-21T05:23:26.144Z,1.80
2022-09-21T05:25:53.614Z,3.47
2022-09-21T05:28:21.009Z,2.03
2022-09-21T05:31:17.080Z,4.72
2022-09-21T05:33:52.899Z,2.70
2022-09-21T05:36:40.025Z,1.90
2022-09-21T05:39:07.990Z,2.05
2022-09-21T05:41:35.322Z,1.95
2022-09-21T05:44:02.777Z,1.60
2022-09-21T05:46:56.228Z,1.63
2022-09-21T05:49:29.224Z,2.10
2022-09-21T05:52:20.395Z,1.73
2022-09-21T05:54:50.551Z,1.73
2022-09-21T05:57:27.448Z,1.73
2022-09-21T06:00:03.919Z,1.60
2022-09-21T06:02:50.120Z,2.45
2022-09-21T06:05:17.723Z,3.85
2022-09-21T06:07:44.822Z,1.67
2022-09-21T06:10:13.224Z,1.95
2022-09-21T06:12:40.453Z,6.97
2022-09-21T06:15:08.262Z,4.93
2022-09-21T06:17:35.317Z,5.78
2022-09-21T06:20:03.320Z,3.85
2022-09-21T06:22:30.390Z,6.18
2022-09-21T06:24:57.448Z,2.35
2022-09-21T06:27:24.607Z,3.97
2022-09-21T06:29:53.020Z,1.80
2022-09-21T06:32:20.950Z,2.97
2022-09-21T06:34:48.029Z,24.75
2022-09-21T06:37:15.085Z,5.20
2022-09-21T06:39:42.155Z,2.90
2022-09-21T06:42:09.217Z,1.75
2022-09-21T06:44:36.370Z,1.73
2022-09-21T06:47:03.564Z,4.13
2022-09-21T06:49:30.643Z,0.93
2022-09-21T06:51:58.221Z,5.53
2022-09-21T06:54:25.285Z,5.53
2022-09-21T06:56:54.092Z,3.47
2022-09-21T06:59:22.975Z,1.60
2022-09-21T07:01:50.149Z,5.75
2022-09-21T07:04:18.461Z,5.63
2022-09-21T07:06:48.127Z,7.40
2022-09-21T07:12:02.438Z,1.88
2022-09-21T07:14:29.469Z,4.80
2022-09-21T07:16:56.664Z,3.60
2022-09-21T07:19:23.809Z,1.58
2022-09-21T07:21:50.888Z,6.68
2022-09-21T07:24:17.991Z,6.50
2022-09-21T07:26:45.163Z,1.30
2022-09-21T07:29:12.416Z,1.02
2022-09-21T07:31:39.653Z,2.75
2022-09-21T07:34:06.774Z,2.40
2022-09-21T07:36:33.875Z,4.32
2022-09-21T07:39:01.112Z,1.63
2022-09-21T07:41:28.177Z,1.98
2022-09-21T07:43:55.559Z,2.20
2022-09-21T07:46:22.832Z,1.77
2022-09-21T07:48:49.973Z,2.60
2022-09-21T07:51:17.108Z,2.78
2022-09-21T07:53:45.011Z,1.92
2022-09-21T07:56:13.366Z,6.25
2022-09-21T07:58:59.797Z,2.90
2022-09-21T08:01:27.550Z,4.07
2022-09-21T08:03:55.839Z,4.90
2022-09-21T08:06:23.757Z,3.00
2022-09-21T08:08:56.572Z,3.80
2022-09-21T08:13:53.782Z,2.17
2022-09-21T08:16:21.307Z,2.25
2022-09-21T08:18:48.573Z,5.68
2022-09-21T08:21:15.649Z,4.22
2022-09-21T08:23:43.214Z,12.15
2022-09-21T08:26:19.018Z,14.68
2022-09-21T08:28:49.256Z,6.68
2022-09-21T08:31:17.439Z,35.22
2022-09-21T08:33:44.602Z,58.88
2022-09-21T08:36:11.806Z,37.58
2022-09-21T08:38:39.682Z,59.58
2022-09-21T08:41:18.249Z,75.13
2022-09-21T08:43:46.319Z,69.13
2022-09-21T08:46:18.679Z,70.75
2022-09-21T08:48:57.481Z,31.63
2022-09-21T08:51:29.585Z,13.25
2022-09-21T08:53:59.427Z,7.72
2022-09-21T08:56:47.076Z,10.57
2022-09-21T08:59:15.945Z,7.05
2022-09-21T09:01:46.281Z,3.03
2022-09-21T09:04:31.953Z,10.38
2022-09-21T09:07:09.359Z,2.40
2022-09-21T09:09:39.480Z,3.88
2022-09-21T09:12:14.885Z,2.47
2022-09-21T09:14:42.029Z,1.77
2022-09-21T09:17:28.251Z,2.45
2022-09-21T09:20:15.591Z,8.02
2022-09-21T09:22:56.592Z,3.25
2022-09-21T09:25:24.635Z,1.38
2022-09-21T09:27:54.455Z,1.17
2022-09-21T09:30:25.466Z,1.02
2022-09-21T09:33:00.842Z,4.28
2022-09-21T09:35:39.112Z,6.00
2022-09-21T09:38:12.214Z,1.70
2022-09-21T09:40:46.454Z,4.28
2022-09-21T09:43:23.343Z,2.15
2022-09-21T09:46:01.559Z,1.98
2022-09-21T09:48:28.679Z,5.68
2022-09-21T09:50:55.856Z,1.83
2022-09-21T09:53:25.253Z,2.33
2022-09-21T09:55:54.495Z,2.42
2022-09-21T09:58:40.453Z,2.08
2022-09-21T10:01:07.880Z,3.25
2022-09-21T10:03:36.213Z,1.30
2022-09-21T10:06:03.441Z,3.13
2022-09-21T10:08:32.210Z,1.48
2022-09-21T10:10:59.595Z,1.65
2022-09-21T10:13:30.716Z,2.03
2022-09-21T10:16:19.534Z,2.45
2022-09-21T10:18:46.633Z,2.70
2022-09-21T10:21:19.224Z,2.30
2022-09-21T10:23:59.397Z,2.15
2022-09-21T10:26:32.639Z,2.25
2022-09-21T10:29:00.732Z,10.15
2022-09-21T10:31:31.621Z,7.85
2022-09-21T10:34:05.323Z,4.32
2022-09-21T10:36:37.047Z,6.18
2022-09-21T10:39:11.971Z,4.88
2022-09-21T10:41:39.460Z,3.92
2022-09-21T10:44:15.250Z,1.83
2022-09-21T10:46:42.646Z,1.40
2022-09-21T10:49:17.759Z,4.15
2022-09-21T10:51:46.700Z,3.35
2022-09-21T10:54:18.478Z,3.35
2022-09-21T10:57:12.075Z,1.60
2022-09-21T10:59:39.265Z,4.32
2022-09-21T11:02:26.270Z,3.30
2022-09-21T11:04:57.904Z,4.15
2022-09-21T11:07:48.412Z,2.72
2022-09-21T11:10:25.011Z,2.50
2022-09-21T11:13:04.254Z,2.90
2022-09-21T11:15:36.854Z,2.35
2022-09-21T11:18:14.520Z,3.65
2022-09-21T11:20:48.477Z,1.95
2022-09-21T11:23:34.190Z,4.82
2022-09-21T11:26:11.526Z,5.28
2022-09-21T11:29:07.012Z,4.65
2022-09-21T11:31:43.244Z,2.00
2022-09-21T11:34:34.508Z,4.95
2022-09-21T11:37:20.296Z,3.20
2022-09-21T11:39:47.343Z,4.25
2022-09-21T11:42:14.410Z,3.85
2022-09-21T11:44:50.724Z,2.42
2022-09-21T11:47:30.785Z,2.50
2022-09-21T11:50:07.888Z,4.75
2022-09-21T11:52:54.890Z,2.83
2022-09-21T11:55:44.655Z,3.63
2022-09-21T11:58:25.941Z,4.13
2022-09-21T12:01:12.204Z,3.00
2022-09-21T12:03:50.875Z,2.55
2022-09-21T12:06:24.047Z,3.72
2022-09-21T12:08:51.097Z,1.65
2022-09-21T12:11:28.943Z,5.55
2022-09-21T12:14:15.336Z,1.42
2022-09-21T12:16:51.075Z,2.85
2022-09-21T12:19:34.120Z,2.05
2022-09-21T12:22:05.597Z,2.72
2022-09-21T12:24:36.618Z,2.83
2022-09-21T12:27:22.565Z,3.30
2022-09-21T12:29:53.356Z,2.17
2022-09-21T12:32:39.428Z,3.65
2022-09-21T12:35:10.722Z,4.47
2022-09-21T12:37:41.285Z,2.75
2022-09-21T12:40:25.261Z,6.30
2022-09-21T12:43:11.800Z,1.63
2022-09-21T12:45:42.896Z,2.45
2022-09-21T12:48:28.945Z,1.42
2022-09-21T12:51:19.988Z,3.97
2022-09-21T12:53:51.179Z,3.05
2022-09-21T12:56:18.436Z,2.63
2022-09-21T12:58:49.397Z,2.10
2022-09-21T13:01:26.862Z,3.83
2022-09-21T13:04:12.496Z,3.40
2022-09-21T13:06:39.550Z,2.55
2022-09-21T13:09:09.941Z,6.60
2022-09-21T13:11:50.421Z,2.92
2022-09-21T13:14:18.320Z,2.08
2022-09-21T13:16:53.978Z,3.80
2022-09-21T13:19:25.269Z,1.50
2022-09-21T13:22:14.571Z,2.00
2022-09-21T13:24:45.651Z,2.83
2022-09-21T13:27:14.081Z,2.70
2022-09-21T13:29:42.907Z,4.60
2022-09-21T13:32:14.150Z,3.53
2022-09-21T13:34:42.895Z,1.85
2022-09-21T13:37:14.151Z,3.30
2022-09-21T13:39:44.582Z,2.13
2022-09-21T13:42:30.110Z,5.10
2022-09-21T13:44:58.112Z,3.50
2022-09-21T13:47:32.652Z,2.80
2022-09-21T13:50:01.216Z,2.80
2022-09-21T13:52:31.352Z,3.67
2022-09-21T13:55:00.565Z,2.17
2022-09-21T13:57:38.894Z,1.98
2022-09-21T14:00:09.430Z,3.30
2022-09-21T14:02:38.376Z,4.10
2022-09-21T14:05:23.954Z,5.68
2022-09-21T14:07:56.658Z,1.38
2022-09-21T14:10:24.208Z,2.10
2022-09-21T14:12:51.569Z,2.53
2022-09-21T14:15:19.250Z,3.92
2022-09-21T14:17:46.582Z,5.45
2022-09-21T14:20:30.397Z,4.88
2022-09-21T14:23:11.871Z,6.85
2022-09-21T14:25:53.154Z,3.95
2022-09-21T14:28:27.169Z,2.95
2022-09-21T14:30:56.968Z,1.30
2022-09-21T14:33:33.737Z,2.78
2022-09-21T14:36:03.572Z,2.08
2022-09-21T14:38:36.110Z,2.55
2022-09-21T14:41:07.311Z,2.15
2022-09-21T14:43:36.071Z,1.63
2022-09-21T14:46:10.265Z,2.80
2022-09-21T14:48:45.095Z,2.40
2022-09-21T14:51:19.671Z,2.38
2022-09-21T14:53:56.003Z,2.92
2022-09-21T14:56:51.659Z,0.57
2022-09-21T14:59:30.125Z,3.30
2022-09-21T15:01:59.904Z,2.70
2022-09-21T15:04:29.812Z,1.83
2022-09-21T15:07:27.008Z,1.58
2022-09-21T15:10:31.697Z,2.70
2022-09-21T15:13:20.273Z,1.85
2022-09-21T15:16:09.528Z,1.63
2022-09-21T15:18:41.736Z,1.10
2022-09-21T15:21:24.139Z,3.13
2022-09-21T15:23:52.965Z,1.95
2022-09-21T15:26:26.524Z,1.50
2022-09-21T15:31:39.119Z,3.25
2022-09-21T15:34:07.483Z,5.10
2022-09-21T15:36:35.869Z,1.42
2022-09-21T15:39:02.951Z,3.70
2022-09-21T15:41:44.818Z,3.63
2022-09-21T15:44:14.858Z,1.02
2022-09-21T15:46:43.459Z,4.43
2022-09-21T15:49:15.506Z,3.30
2022-09-21T15:51:45.539Z,1.92
2022-09-21T15:54:25.510Z,2.75
2022-09-21T15:56:52.822Z,2.35
2022-09-21T15:59:22.182Z,2.47
2022-09-21T16:01:50.762Z,4.15
2022-09-21T16:04:22.434Z,1.95
2022-09-21T16:06:58.881Z,2.42
2022-09-21T16:09:31.819Z,2.88
2022-09-21T16:11:58.940Z,4.07
2022-09-21T16:14:44.730Z,2.10
2022-09-21T16:17:19.307Z,2.28
2022-09-21T16:19:53.508Z,36.78
2022-09-21T16:22:39.542Z,4.80
2022-09-21T16:25:22.562Z,4.78
2022-09-21T16:27:55.305Z,16.37
2022-09-21T16:30:41.250Z,7.07
2022-09-21T16:33:27.099Z,14.05
2022-09-21T16:35:55.880Z,4.72
2022-09-21T16:38:23.627Z,46.00
2022-09-21T16:40:54.093Z,21.60
2022-09-21T16:43:23.366Z,25.60
2022-09-21T16:45:50.589Z,14.63
2022-09-21T16:48:18.931Z,17.02
2022-09-21T16:50:46.499Z,21.70
2022-09-21T16:53:13.603Z,7.32
2022-09-21T16:55:43.261Z,5.18
2022-09-21T16:58:10.337Z,43.55
2022-09-21T17:00:39.948Z,11.55
2022-09-21T17:03:07.068Z,11.30
2022-09-21T17:05:34.135Z,27.70
2022-09-21T17:08:01.387Z,40.67
2022-09-21T17:10:31.769Z,34.67
2022-09-21T17:12:59.246Z,34.55
2022-09-21T17:15:28.398Z,32.97
2022-09-21T17:17:58.190Z,20.48
2022-09-21T17:20:35.404Z,35.80
2022-09-21T17:23:03.272Z,8.77
2022-09-21T17:25:36.261Z,10.77
2022-09-21T17:28:05.919Z,24.30
2022-09-21T17:30:34.967Z,18.95
2022-09-21T17:33:02.039Z,29.20
2022-09-21T17:35:33.696Z,25.80
2022-09-21T17:38:00.966Z,11.32
2022-09-21T17:40:28.246Z,15.63
2022-09-21T17:42:57.115Z,14.10
2022-09-21T17:45:38.697Z,10.32
2022-09-21T17:48:05.994Z,16.80
2022-09-21T17:50:33.246Z,11.32
2022-09-21T17:53:18.742Z,19.10
2022-09-21T17:55:54.514Z,15.25
2022-09-21T17:58:34.944Z,9.77
2022-09-21T18:01:09.671Z,9.05
2022-09-21T18:03:41.787Z,5.38
2022-09-21T18:06:09.619Z,5.25
2022-09-21T18:08:37.494Z,9.07
2022-09-21T18:11:13.943Z,9.57
2022-09-21T18:13:53.973Z,11.48
2022-09-21T18:16:45.547Z,5.68
2022-09-21T18:19:15.740Z,14.98
2022-09-21T18:21:44.558Z,10.10
2022-09-21T18:24:15.853Z,6.78
2022-09-21T18:26:43.208Z,15.70
2022-09-21T18:29:40.386Z,7.28
2022-09-21T18:32:14.524Z,7.43
2022-09-21T18:35:00.520Z,9.35
2022-09-21T18:37:37.027Z,3.33
2022-09-21T18:40:21.828Z,7.07
2022-09-21T18:42:53.168Z,4.50
2022-09-21T18:45:25.913Z,3.65
2022-09-21T18:47:56.010Z,6.60
2022-09-21T18:50:39.326Z,5.00
2022-09-21T18:53:25.659Z,4.13
2022-09-21T18:55:52.874Z,5.65
2022-09-21T18:58:20.029Z,4.05
2022-09-21T19:00:48.124Z,3.05
2022-09-21T19:03:18.257Z,2.78
2022-09-21T19:05:58.160Z,5.30
2022-09-21T19:08:47.094Z,5.10
2022-09-21T19:11:18.466Z,7.53
2022-09-21T19:13:56.862Z,6.63
2022-09-21T19:16:28.345Z,8.05
2022-09-21T19:19:07.381Z,7.88
2022-09-21T19:21:40.537Z,4.65
2022-09-21T19:24:27.047Z,5.72
2022-09-21T19:26:57.234Z,6.85
2022-09-21T19:29:47.488Z,6.45
2022-09-21T19:32:47.274Z,8.65
2022-09-21T19:35:17.444Z,9.10
2022-09-21T19:37:44.702Z,5.85
2022-09-21T19:40:12.224Z,7.50
2022-09-21T19:42:45.452Z,10.07
2022-09-21T19:45:20.809Z,9.10
2022-09-21T19:47:52.563Z,6.88
2022-09-21T19:50:20.878Z,5.40
2022-09-21T19:52:48.216Z,11.23
2022-09-21T19:55:39.249Z,8.45
2022-09-21T19:58:42.739Z,5.50
2022-09-21T20:01:11.855Z,8.20
2022-09-21T20:03:42.498Z,10.13
2022-09-21T20:06:15.092Z,12.38
2022-09-21T20:09:02.644Z,10.73
2022-09-21T20:11:50.667Z,8.60
2022-09-21T20:14:22.032Z,8.52
2022-09-21T20:16:51.334Z,8.02
2022-09-21T20:19:33.476Z,7.35
2022-09-21T20:22:20.793Z,6.55
2022-09-21T20:24:58.222Z,6.38
2022-09-21T20:27:34.940Z,7.65
2022-09-21T20:30:06.899Z,8.25
2022-09-21T20:32:34.587Z,5.38
2022-09-21T20:35:01.654Z,6.65
2022-09-21T20:37:30.196Z,9.65
2022-09-21T20:39:57.486Z,11.00
2022-09-21T20:42:26.722Z,9.57
2022-09-21T20:44:54.542Z,7.50
2022-09-21T20:47:21.936Z,4.13
2022-09-21T20:49:49.292Z,7.45
2022-09-21T20:52:17.368Z,7.28
2022-09-21T20:54:48.910Z,3.25
2022-09-21T20:57:16.841Z,4.15
2022-09-21T20:59:44.665Z,7.28
2022-09-21T21:02:12.720Z,5.63
2022-09-21T21:04:40.190Z,4.60
2022-09-21T21:07:07.725Z,3.42
2022-09-21T21:09:34.838Z,8.85
2022-09-21T21:12:02.063Z,2.60
2022-09-21T21:14:30.010Z,5.78
2022-09-21T21:16:57.285Z,3.65
2022-09-21T21:19:24.554Z,2.70
2022-09-21T21:21:51.715Z,5.28
2022-09-21T21:24:37.535Z,5.22
2022-09-21T21:27:04.743Z,8.02
2022-09-21T21:29:32.614Z,8.07
2022-09-21T21:32:00.166Z,6.43
2022-09-21T21:34:27.510Z,5.60
2022-09-21T21:36:55.298Z,3.60
2022-09-21T21:39:22.453Z,4.40
2022-09-21T21:41:49.569Z,7.07
2022-09-21T21:44:16.704Z,7.18
2022-09-21T21:46:43.898Z,5.63
2022-09-21T21:49:10.968Z,6.95
2022-09-21T21:51:38.083Z,4.53
2022-09-21T21:54:05.368Z,3.30
2022-09-21T21:56:32.519Z,4.85
2022-09-21T21:58:59.580Z,5.90
2022-09-21T22:01:28.111Z,4.00
2022-09-21T22:03:57.188Z,6.38
2022-09-21T22:06:24.985Z,8.15
2022-09-21T22:08:52.175Z,6.93
2022-09-21T22:11:20.040Z,7.05
2022-09-21T22:13:47.779Z,6.82
2022-09-21T22:16:19.735Z,6.43
2022-09-21T22:18:47.302Z,6.35
2022-09-21T22:21:15.985Z,3.97
2022-09-21T22:23:44.256Z,8.85
2022-09-21T22:26:13.837Z,5.95
2022-09-21T22:28:41.756Z,3.33
2022-09-21T22:31:10.030Z,4.28
2022-09-21T22:33:37.631Z,3.78
2022-09-21T22:36:09.196Z,4.32
2022-09-21T22:38:41.946Z,3.85
2022-09-21T22:41:11.063Z,3.47
2022-09-21T22:43:38.507Z,6.60
2022-09-21T22:46:06.328Z,3.45
2022-09-21T22:48:33.636Z,4.53
2022-09-21T22:51:00.700Z,3.78
2022-09-21T22:53:27.774Z,3.72
2022-09-21T22:56:09.982Z,7.30
2022-09-21T22:58:38.460Z,5.15
2022-09-21T23:01:13.018Z,5.70
2022-09-21T23:03:41.100Z,4.40
2022-09-21T23:06:10.091Z,5.95
2022-09-21T23:08:37.838Z,3.47
2022-09-21T23:11:08.019Z,3.80
2022-09-21T23:13:35.105Z,3.33
2022-09-21T23:16:03.096Z,2.55
2022-09-21T23:18:31.268Z,5.97
2022-09-21T23:20:59.440Z,6.38
2022-09-21T23:23:26.786Z,8.27
2022-09-21T23:26:05.261Z,6.78
2022-09-21T23:28:33.158Z,3.33
2022-09-21T23:31:00.838Z,4.82
2022-09-21T23:33:31.652Z,4.20
2022-09-21T23:35:59.623Z,2.38
2022-09-21T23:38:26.841Z,2.22
2022-09-21T23:40:54.115Z,8.20
2022-09-21T23:43:21.218Z,3.47
2022-09-21T23:45:48.318Z,6.68
2022-09-21T23:48:15.379Z,6.55
2022-09-21T23:50:44.254Z,7.30
2022-09-21T23:53:11.349Z,2.70
2022-09-21T23:55:38.444Z,4.38
2022-09-21T23:58:05.609Z,5.57
